Time;durP1;ratioP1;P1;durP2;ratioP2;P2;SDS_P1;SDS_P2;PMS_P1;PMS_P2;Temp;Humidity;BMP_temperature;BMP_pressure;BME280_temperature;BME280_humidity;BME280_pressure;Samples;Min_cycle;Max_cycle;Signal;HPM_P1;HPM_P2
2022/10/22 00:01:23;;;;;;;;;;;;;;;;;;5033549;28;19986;-78
2022/10/22 00:03:50;;;;;;;;;;;;;;;;;;5035270;28;20423;-79
2022/10/22 00:06:16;;;;;;;;;;;;;;;;;;5034437;28;20361;-79
2022/10/22 00:08:42;;;;;;;;;;;;;;;;;;5035839;28;19990;-77
2022/10/22 00:11:10;;;;;;;;;;;;;;;;;;5032491;28;20435;-79
2022/10/22 00:13:36;;;;;;;;;;;;;;;;;;5039141;28;19999;-81
2022/10/22 00:16:03;;;;;;;;;;;;;;;;;;5034907;28;20016;-79
2022/10/22 00:18:31;;;;;;;;;;;;;;;;;;5029040;28;19975;-78
2022/10/22 00:20:57;;;;;;;;;;;;;;;;;;5015526;28;19926;-79
2022/10/22 00:23:24;;;;;;;;;;;;;;;;;;5013752;28;19987;-78
2022/10/22 00:25:50;;;;;;;;;;;;;;;;;;5013802;28;20024;-79
2022/10/22 00:28:16;;;;;;;;;;;;;;;;;;5014272;28;20020;-79
2022/10/22 00:30:43;;;;;;;;;;;;;;;;;;5014235;28;19930;-79
2022/10/22 00:33:09;;;;;;;;;;;;;;;;;;5014133;28;19983;-77
2022/10/22 00:35:37;;;;;;;;;;;;;;;;;;5015134;28;19964;-79
2022/10/22 00:38:03;;;;;;;;;;;;;;;;;;5016092;28;20039;-78
2022/10/22 00:40:30;;;;;;;;;;;;;;;;;;5017523;28;19961;-79
2022/10/22 00:42:56;;;;;;;;;;;;;;;;;;5018785;28;19925;-79
2022/10/22 00:45:24;;;;;;;;;;;;;;;;;;5018782;28;20001;-79
2022/10/22 00:47:53;;;;;;;;;;;;;;;;;;5017972;28;19926;-78
2022/10/22 00:50:22;;;;;;;;;;;;;;;;;;5017538;28;19932;-79
2022/10/22 00:52:50;;;;;;;;;;;;;;;;;;5017167;28;19987;-78
2022/10/22 00:55:18;;;;;;;;;;;;;;;;;;5017655;28;19925;-79
2022/10/22 00:57:44;;;;;;;;;;;;;;;;;;5017307;28;19929;-79
2022/10/22 01:00:11;;;;;;;;;;;;;;;;;;5018201;28;19968;-78
2022/10/22 01:02:38;;;;;;;;;;;;;;;;;;5025958;28;19972;-79
2022/10/22 01:05:05;;;;;;;;;;;;;;;;;;5043688;28;19964;-78
2022/10/22 01:07:33;;;;;;;;;;;;;;;;;;5043397;28;19965;-79
2022/10/22 01:10:05;;;;;;;;;;;;;;;;;;5037028;28;20015;-79
2022/10/22 01:12:38;;;;;;;;;;;;;;;;;;5033520;28;20369;-78
2022/10/22 01:15:10;;;;;;;;;;;;;;;;;;5037398;28;19929;-79
2022/10/22 01:17:40;;;;;;;;;;;;;;;;;;5043566;28;19925;-79
2022/10/22 01:20:14;;;;;;;;;;;;;;;;;;5044186;28;19983;-79
2022/10/22 01:22:42;;;;;;;;;;;;;;;;;;5043573;28;19925;-79
2022/10/22 01:25:12;;;;;;;;;;;;;;;;;;5044996;28;20347;-78
2022/10/22 01:27:53;;;;;;;;;;;;;;;;;;5038768;28;19925;-79
2022/10/22 01:30:21;;;;;;;;;;;;;;;;;;5037955;28;19925;-79
2022/10/22 01:32:49;;;;;;;;;;;;;;;;;;5037307;28;20412;-79
2022/10/22 01:35:18;;;;;;;;;;;;;;;;;;5041809;28;19957;-79
2022/10/22 01:37:46;;;;;;;;;;;;;;;;;;5042083;28;19981;-79
2022/10/22 01:40:15;;;;;;;;;;;;;;;;;;5038062;28;19984;-78
2022/10/22 01:42:41;;;;;;;;;;;;;;;;;;5039874;28;19925;-78
2022/10/22 01:45:11;;;;;;;;;;;;;;;;;;5039086;28;19925;-80
2022/10/22 01:47:43;;;;;;;;;;;;;;;;;;5039152;28;19976;-79
2022/10/22 01:50:15;;;;;;;;;;;;;;;;;;5039257;28;19956;-78
2022/10/22 01:52:52;;;;;;;;;;;;;;;;;;5047290;28;19937;-78
2022/10/22 01:55:25;;;;;;;;;;;;;;;;;;5042410;28;20424;-78
2022/10/22 01:57:55;;;;;;;;;;;;;;;;;;5037318;28;20008;-78
2022/10/22 02:00:22;;;;;;;;;;;;;;;;;;5034896;28;20008;-79
2022/10/22 02:02:56;;;;;;;;;;;;;;;;;;5014741;28;19925;-79
2022/10/22 02:05:24;;;;;;;;;;;;;;;;;;5045476;28;19964;-80
2022/10/22 02:07:51;;;;;;;;;;;;;;;;;;5050967;28;19932;-80
2022/10/22 02:10:19;;;;;;;;;;;;;;;;;;5036902;28;19936;-78
2022/10/22 02:12:48;;;;;;;;;;;;;;;;;;5030160;28;19994;-79
2022/10/22 02:15:15;;;;;;;;;;;;;;;;;;5033898;28;19992;-79
2022/10/22 02:17:43;;;;;;;;;;;;;;;;;;5039010;28;20008;-79
2022/10/22 02:20:14;;;;;;;;;;;;;;;;;;5020567;28;19925;-78
2022/10/22 02:22:41;;;;;;;;;;;;;;;;;;5015466;28;19926;-78
2022/10/22 02:25:08;;;;;;;;;;;;;;;;;;5004174;28;19925;-79
2022/10/22 02:27:38;;;;;;;;;;;;;;;;;;5004212;28;19969;-78
2022/10/22 02:30:06;;;;;;;;;;;;;;;;;;5005161;28;20000;-78
2022/10/22 02:32:36;;;;;;;;;;;;;;;;;;5004012;28;20021;-78
2022/10/22 02:35:03;;;;;;;;;;;;;;;;;;5002974;28;19993;-77
2022/10/22 02:37:30;;;;;;;;;;;;;;;;;;5002429;28;19976;-77
2022/10/22 02:39:57;;;;;;;;;;;;;;;;;;5002914;28;20012;-77
2022/10/22 02:42:24;;;;;;;;;;;;;;;;;;5001983;28;19932;-79
2022/10/22 02:44:51;;;;;;;;;;;;;;;;;;5002464;28;20012;-78
2022/10/22 02:47:17;;;;;;;;;;;;;;;;;;5000762;28;19965;-78
2022/10/22 02:49:43;;;;;;;;;;;;;;;;;;5000721;28;19986;-78
2022/10/22 02:52:10;;;;;;;;;;;;;;;;;;5000497;28;19973;-79
2022/10/22 02:54:38;;;;;;;;;;;;;;;;;;5000747;28;20012;-79
2022/10/22 02:57:04;;;;;;;;;;;;;;;;;;5000785;28;19936;-80
2022/10/22 02:59:31;;;;;;;;;;;;;;;;;;5000963;28;19926;-80
2022/10/22 03:01:57;;;;;;;;;;;;;;;;;;5000708;28;20365;-79
2022/10/22 03:04:23;;;;;;;;;;;;;;;;;;4999351;28;19961;-78
2022/10/22 03:06:50;;;;;;;;;;;;;;;;;;4995852;28;20020;-79
2022/10/22 03:09:16;;;;;;;;;;;;;;;;;;4995492;28;20381;-79
2022/10/22 03:11:44;;;;;;;;;;;;;;;;;;4997530;28;20020;-79
2022/10/22 03:14:10;;;;;;;;;;;;;;;;;;4998520;28;20362;-79
2022/10/22 03:16:37;;;;;;;;;;;;;;;;;;4998606;28;19941;-79
2022/10/22 03:19:03;;;;;;;;;;;;;;;;;;4996927;28;20016;-77
2022/10/22 03:21:33;;;;;;;;;;;;;;;;;;5000023;28;19976;-78
2022/10/22 03:24:01;;;;;;;;;;;;;;;;;;5000805;28;20365;-79
2022/10/22 03:26:28;;;;;;;;;;;;;;;;;;5000866;28;19926;-78
2022/10/22 03:28:56;;;;;;;;;;;;;;;;;;5002128;28;19980;-77
2022/10/22 03:31:22;;;;;;;;;;;;;;;;;;5003333;28;19925;-78
2022/10/22 03:33:48;;;;;;;;;;;;;;;;;;5002479;28;19965;-78
2022/10/22 03:36:15;;;;;;;;;;;;;;;;;;5002929;28;19972;-79
2022/10/22 03:38:41;;;;;;;;;;;;;;;;;;5001513;28;20289;-78
2022/10/22 03:41:08;;;;;;;;;;;;;;;;;;5001692;28;19926;-79
2022/10/22 03:43:35;;;;;;;;;;;;;;;;;;5001364;28;20313;-78
2022/10/22 03:46:03;;;;;;;;;;;;;;;;;;5000951;28;20278;-78
2022/10/22 03:48:29;;;;;;;;;;;;;;;;;;5005893;28;20050;-78
2022/10/22 03:50:56;;;;;;;;;;;;;;;;;;5003291;28;20029;-78
2022/10/22 03:53:22;;;;;;;;;;;;;;;;;;5002129;28;19945;-79
2022/10/22 03:55:49;;;;;;;;;;;;;;;;;;4995679;28;20009;-79
2022/10/22 03:58:15;;;;;;;;;;;;;;;;;;4995118;28;19926;-78
2022/10/22 04:00:42;;;;;;;;;;;;;;;;;;4994698;28;20013;-78
2022/10/22 04:03:10;;;;;;;;;;;;;;;;;;5002040;28;19981;-78
2022/10/22 04:05:36;;;;;;;;;;;;;;;;;;5002913;28;20000;-77
2022/10/22 04:08:02;;;;;;;;;;;;;;;;;;5001429;28;20322;-78
2022/10/22 04:10:29;;;;;;;;;;;;;;;;;;4999432;28;20092;-78
2022/10/22 04:12:55;;;;;;;;;;;;;;;;;;4998578;28;20020;-77
2022/10/22 04:15:22;;;;;;;;;;;;;;;;;;4998811;28;19980;-77
2022/10/22 04:17:48;;;;;;;;;;;;;;;;;;4998942;28;20451;-78
2022/10/22 04:20:16;;;;;;;;;;;;;;;;;;4999748;28;19968;-78
2022/10/22 04:22:43;;;;;;;;;;;;;;;;;;5019887;28;19976;-78
2022/10/22 04:25:09;;;;;;;;;;;;;;;;;;5015975;28;20016;-78
2022/10/22 04:27:36;;;;;;;;;;;;;;;;;;5014946;28;19932;-79
2022/10/22 04:30:03;;;;;;;;;;;;;;;;;;5017867;28;20359;-79
2022/10/22 04:32:29;;;;;;;;;;;;;;;;;;5017228;28;19977;-78
2022/10/22 04:34:55;;;;;;;;;;;;;;;;;;5017680;28;20008;-79
2022/10/22 04:37:23;;;;;;;;;;;;;;;;;;5021430;28;19964;-78
2022/10/22 04:39:50;;;;;;;;;;;;;;;;;;5023667;28;19948;-78
2022/10/22 04:42:16;;;;;;;;;;;;;;;;;;5025745;28;19926;-79
2022/10/22 04:44:43;;;;;;;;;;;;;;;;;;5026585;28;19929;-81
2022/10/22 04:47:09;;;;;;;;;;;;;;;;;;5024615;28;19976;-80
2022/10/22 04:49:36;;;;;;;;;;;;;;;;;;5014556;28;19965;-79
2022/10/22 04:52:02;;;;;;;;;;;;;;;;;;5012969;28;19929;-78
2022/10/22 04:54:30;;;;;;;;;;;;;;;;;;5015529;28;20020;-79
2022/10/22 04:56:56;;;;;;;;;;;;;;;;;;5016851;28;19995;-78
2022/10/22 04:59:23;;;;;;;;;;;;;;;;;;5018120;28;19961;-78
2022/10/22 05:01:49;;;;;;;;;;;;;;;;;;5016337;28;20028;-79
2022/10/22 05:04:16;;;;;;;;;;;;;;;;;;5033942;28;20015;-77
2022/10/22 05:06:43;;;;;;;;;;;;;;;;;;5036221;28;19931;-79
2022/10/22 05:09:11;;;;;;;;;;;;;;;;;;5045561;28;19976;-80
2022/10/22 05:11:40;;;;;;;;;;;;;;;;;;5006279;28;19930;-79
2022/10/22 05:14:08;;;;;;;;;;;;;;;;;;5007552;28;19926;-79
2022/10/22 05:16:36;;;;;;;;;;;;;;;;;;5010324;28;19933;-79
2022/10/22 05:19:03;;;;;;;;;;;;;;;;;;5003136;28;19926;-79
2022/10/22 05:21:30;;;;;;;;;;;;;;;;;;5006752;28;20016;-78
2022/10/22 05:23:59;;;;;;;;;;;;;;;;;;5008021;28;19933;-79
2022/10/22 05:26:26;;;;;;;;;;;;;;;;;;5007616;28;19936;-78
2022/10/22 05:28:54;;;;;;;;;;;;;;;;;;5006424;28;19930;-78
2022/10/22 05:31:20;;;;;;;;;;;;;;;;;;4999869;28;19938;-79
2022/10/22 05:33:47;;;;;;;;;;;;;;;;;;4996157;28;19969;-79
2022/10/22 05:36:15;;;;;;;;;;;;;;;;;;4995406;28;19979;-79
2022/10/22 05:38:41;;;;;;;;;;;;;;;;;;4995605;28;19983;-78
2022/10/22 05:41:09;;;;;;;;;;;;;;;;;;4996532;28;20125;-78
2022/10/22 05:43:36;;;;;;;;;;;;;;;;;;4995178;28;20003;-79
2022/10/22 05:46:04;;;;;;;;;;;;;;;;;;4994217;28;20124;-78
2022/10/22 05:48:31;;;;;;;;;;;;;;;;;;4994524;28;20012;-78
2022/10/22 05:51:03;;;;;;;;;;;;;;;;;;5002047;28;20004;-79
2022/10/22 05:53:30;;;;;;;;;;;;;;;;;;5004237;28;19925;-80
2022/10/22 05:55:56;;;;;;;;;;;;;;;;;;5002574;28;20016;-79
2022/10/22 05:58:22;;;;;;;;;;;;;;;;;;5002595;28;20020;-78
2022/10/22 06:00:49;;;;;;;;;;;;;;;;;;5002275;28;19969;-76
2022/10/22 06:03:17;;;;;;;;;;;;;;;;;;5003497;28;20024;-79
2022/10/22 06:05:43;;;;;;;;;;;;;;;;;;5001902;28;20353;-78
2022/10/22 06:08:10;;;;;;;;;;;;;;;;;;4998966;28;20408;-79
2022/10/22 06:10:37;;;;;;;;;;;;;;;;;;4999223;28;19984;-79
2022/10/22 06:13:06;;;;;;;;;;;;;;;;;;4999635;28;19984;-77
2022/10/22 06:15:34;;;;;;;;;;;;;;;;;;4997828;28;20143;-79
2022/10/22 06:18:00;;;;;;;;;;;;;;;;;;5008722;28;20113;-78
2022/10/22 06:20:28;;;;;;;;;;;;;;;;;;5007577;28;19949;-78
2022/10/22 06:22:55;;;;;;;;;;;;;;;;;;5000917;28;19926;-79
2022/10/22 06:25:21;;;;;;;;;;;;;;;;;;4999825;28;19973;-78
2022/10/22 06:27:49;;;;;;;;;;;;;;;;;;5000792;28;19926;-79
2022/10/22 06:30:15;;;;;;;;;;;;;;;;;;5001875;28;20102;-79
2022/10/22 06:32:42;;;;;;;;;;;;;;;;;;5002340;28;20012;-78
2022/10/22 06:35:08;;;;;;;;;;;;;;;;;;5002979;28;20540;-79
2022/10/22 06:37:36;;;;;;;;;;;;;;;;;;5003017;28;20429;-78
2022/10/22 06:40:03;;;;;;;;;;;;;;;;;;5002964;28;19992;-78
2022/10/22 06:42:29;;;;;;;;;;;;;;;;;;5003432;28;19964;-79
2022/10/22 06:44:56;;;;;;;;;;;;;;;;;;5002589;28;19994;-79
2022/10/22 06:47:22;;;;;;;;;;;;;;;;;;5003082;28;19926;-79
2022/10/22 06:49:48;;;;;;;;;;;;;;;;;;5002568;28;20348;-77
2022/10/22 06:52:15;;;;;;;;;;;;;;;;;;5002694;28;20341;-79
2022/10/22 06:54:43;;;;;;;;;;;;;;;;;;5003452;28;19926;-79
2022/10/22 06:57:09;;;;;;;;;;;;;;;;;;5003993;28;20013;-79
2022/10/22 06:59:36;;;;;;;;;;;;;;;;;;5002819;28;20424;-80
2022/10/22 07:02:02;;;;;;;;;;;;;;;;;;4999749;28;20393;-79
2022/10/22 07:04:29;;;;;;;;;;;;;;;;;;5000905;28;20017;-80
2022/10/22 07:06:55;;;;;;;;;;;;;;;;;;4999953;28;19926;-80
2022/10/22 07:09:21;;;;;;;;;;;;;;;;;;4999371;28;20396;-80
2022/10/22 07:11:49;;;;;;;;;;;;;;;;;;4999775;28;19965;-80
2022/10/22 07:14:16;;;;;;;;;;;;;;;;;;4999795;28;20445;-78
2022/10/22 07:16:44;;;;;;;;;;;;;;;;;;5000114;28;19925;-80
2022/10/22 07:19:11;;;;;;;;;;;;;;;;;;5001084;28;20402;-79
2022/10/22 07:21:37;;;;;;;;;;;;;;;;;;5002716;28;19985;-80
2022/10/22 07:24:04;;;;;;;;;;;;;;;;;;5002448;28;19933;-79
2022/10/22 07:26:31;;;;;;;;;;;;;;;;;;5002828;28;19968;-80
2022/10/22 07:28:59;;;;;;;;;;;;;;;;;;5001628;28;19926;-79
2022/10/22 07:31:25;;;;;;;;;;;;;;;;;;5006684;28;19933;-79
2022/10/22 07:33:52;;;;;;;;;;;;;;;;;;5001666;28;19926;-80
2022/10/22 07:36:18;;;;;;;;;;;;;;;;;;5000202;28;20013;-80
2022/10/22 07:38:45;;;;;;;;;;;;;;;;;;4999416;28;20378;-77
2022/10/22 07:41:12;;;;;;;;;;;;;;;;;;4999052;28;19936;-77
2022/10/22 07:43:38;;;;;;;;;;;;;;;;;;5001646;28;19988;-79
2022/10/22 07:46:07;;;;;;;;;;;;;;;;;;5001098;28;20453;-77
2022/10/22 07:48:34;;;;;;;;;;;;;;;;;;5000636;28;19926;-78
2022/10/22 07:51:00;;;;;;;;;;;;;;;;;;4999891;28;20037;-78
2022/10/22 07:53:27;;;;;;;;;;;;;;;;;;4999224;28;19926;-78
2022/10/22 07:55:53;;;;;;;;;;;;;;;;;;4999432;28;20012;-77
2022/10/22 07:58:21;;;;;;;;;;;;;;;;;;4999214;28;20000;-80
2022/10/22 08:00:48;;;;;;;;;;;;;;;;;;4998843;28;20360;-77
2022/10/22 08:03:16;;;;;;;;;;;;;;;;;;5016553;28;19968;-78
2022/10/22 08:05:43;;;;;;;;;;;;;;;;;;5039409;28;19948;-79
2022/10/22 08:08:10;;;;;;;;;;;;;;;;;;5041731;28;19984;-80
2022/10/22 08:10:37;;;;;;;;;;;;;;;;;;5042246;28;20016;-80
2022/10/22 08:13:04;;;;;;;;;;;;;;;;;;5042736;28;19925;-78
2022/10/22 08:15:30;;;;;;;;;;;;;;;;;;5042779;28;20435;-80
2022/10/22 08:17:57;;;;;;;;;;;;;;;;;;5041668;28;20011;-80
2022/10/22 08:20:24;;;;;;;;;;;;;;;;;;5041626;28;19968;-77
2022/10/22 08:22:51;;;;;;;;;;;;;;;;;;5041903;28;20040;-77
2022/10/22 08:25:17;;;;;;;;;;;;;;;;;;5042207;28;19956;-79
2022/10/22 08:27:44;;;;;;;;;;;;;;;;;;5041322;28;19932;-79
2022/10/22 08:30:11;;;;;;;;;;;;;;;;;;5041743;28;19932;-78
2022/10/22 08:32:38;;;;;;;;;;;;;;;;;;5040586;28;19964;-78
2022/10/22 08:35:04;;;;;;;;;;;;;;;;;;5041206;28;20372;-78
2022/10/22 08:37:32;;;;;;;;;;;;;;;;;;5040557;28;19933;-77
2022/10/22 08:39:59;;;;;;;;;;;;;;;;;;5042205;28;20455;-80
2022/10/22 08:42:33;;;;;;;;;;;;;;;;;;5041483;28;19976;-79
2022/10/22 08:45:03;;;;;;;;;;;;;;;;;;5040715;28;19925;-79
2022/10/22 08:47:51;;;;;;;;;;;;;;;;;;5039980;28;20419;-78
2022/10/22 08:50:22;;;;;;;;;;;;;;;;;;5034313;28;19925;-79
2022/10/22 08:52:53;;;;;;;;;;;;;;;;;;5039071;28;19956;-79
2022/10/22 08:55:20;;;;;;;;;;;;;;;;;;5038857;28;19965;-78
2022/10/22 08:57:50;;;;;;;;;;;;;;;;;;5039362;28;20015;-79
2022/10/22 09:00:19;;;;;;;;;;;;;;;;;;5038089;28;19925;-78
2022/10/22 09:02:51;;;;;;;;;;;;;;;;;;5032996;28;19976;-78
2022/10/22 09:05:24;;;;;;;;;;;;;;;;;;5015959;28;19925;-78
2022/10/22 09:07:52;;;;;;;;;;;;;;;;;;5015556;28;20426;-79
2022/10/22 09:10:19;;;;;;;;;;;;;;;;;;5015342;28;19948;-79
2022/10/22 09:12:47;;;;;;;;;;;;;;;;;;5016070;28;19972;-79
2022/10/22 09:15:14;;;;;;;;;;;;;;;;;;5016186;28;19981;-79
2022/10/22 09:17:44;;;;;;;;;;;;;;;;;;5015627;28;19965;-78
2022/10/22 09:20:15;;;;;;;;;;;;;;;;;;5016485;28;19932;-77
2022/10/22 09:22:46;;;;;;;;;;;;;;;;;;5016625;28;19926;-79
2022/10/22 09:25:23;;;;;;;;;;;;;;;;;;5015958;28;19964;-79
2022/10/22 09:27:51;;;;;;;;;;;;;;;;;;5015861;28;20009;-78
2022/10/22 09:30:18;;;;;;;;;;;;;;;;;;5016004;28;19949;-78
2022/10/22 09:32:45;;;;;;;;;;;;;;;;;;5016254;28;19932;-79
2022/10/22 09:35:12;;;;;;;;;;;;;;;;;;5016422;28;19929;-78
2022/10/22 09:37:46;;;;;;;;;;;;;;;;;;5015807;28;19932;-81
2022/10/22 09:40:13;;;;;;;;;;;;;;;;;;5015818;28;20039;-79
2022/10/22 09:42:42;;;;;;;;;;;;;;;;;;5015478;28;19925;-79
2022/10/22 09:45:15;;;;;;;;;;;;;;;;;;5015682;28;19932;-79
2022/10/22 09:47:42;;;;;;;;;;;;;;;;;;5015321;28;20016;-79
2022/10/22 09:50:17;;;;;;;;;;;;;;;;;;5016090;28;19977;-79
2022/10/22 09:52:44;;;;;;;;;;;;;;;;;;5015650;28;19976;-77
2022/10/22 09:55:13;;;;;;;;;;;;;;;;;;5019850;28;19968;-79
2022/10/22 09:57:41;;;;;;;;;;;;;;;;;;5019334;28;19961;-79
2022/10/22 10:00:08;;;;;;;;;;;;;;;;;;5018588;28;20016;-79
2022/10/22 10:02:36;;;;;;;;;;;;;;;;;;5020883;28;19984;-80
2022/10/22 10:05:04;;;;;;;;;;;;;;;;;;5037260;28;19925;-79
2022/10/22 10:07:31;;;;;;;;;;;;;;;;;;5035479;28;19979;-79
2022/10/22 10:09:58;;;;;;;;;;;;;;;;;;5035656;28;19925;-80
2022/10/22 10:12:28;;;;;;;;;;;;;;;;;;5035410;28;19925;-78
2022/10/22 10:15:00;;;;;;;;;;;;;;;;;;5034702;28;19972;-79
2022/10/22 10:17:33;;;;;;;;;;;;;;;;;;5035135;28;19991;-79
2022/10/22 10:20:03;;;;;;;;;;;;;;;;;;5036864;28;19932;-80
2022/10/22 10:22:44;;;;;;;;;;;;;;;;;;5035773;28;20004;-79
2022/10/22 10:25:19;;;;;;;;;;;;;;;;;;5033087;28;19929;-79
2022/10/22 10:27:50;;;;;;;;;;;;;;;;;;5035726;28;19965;-80
2022/10/22 10:30:19;;;;;;;;;;;;;;;;;;5036085;28;20347;-79
2022/10/22 10:32:58;;;;;;;;;;;;;;;;;;5036171;28;19968;-79
2022/10/22 10:35:27;;;;;;;;;;;;;;;;;;5036937;28;20312;-79
2022/10/22 10:37:57;;;;;;;;;;;;;;;;;;5040762;28;19960;-78
2022/10/22 10:40:28;;;;;;;;;;;;;;;;;;5041096;28;19984;-78
2022/10/22 10:42:58;;;;;;;;;;;;;;;;;;5013292;28;19940;-77
2022/10/22 10:45:30;;;;;;;;;;;;;;;;;;5019284;28;20331;-78
2022/10/22 10:48:03;;;;;;;;;;;;;;;;;;5011970;28;19981;-79
2022/10/22 10:50:34;;;;;;;;;;;;;;;;;;5007810;28;20017;-78
2022/10/22 10:53:04;;;;;;;;;;;;;;;;;;5018419;28;20021;-79
2022/10/22 10:55:32;;;;;;;;;;;;;;;;;;5031315;28;19973;-79
2022/10/22 10:58:03;;;;;;;;;;;;;;;;;;5036408;28;19971;-79
2022/10/22 11:00:32;;;;;;;;;;;;;;;;;;5027400;28;19948;-78
2022/10/22 11:03:15;;;;;;;;;;;;;;;;;;5026831;28;19971;-80
2022/10/22 11:05:43;;;;;;;;;;;;;;;;;;5025232;28;19967;-79
2022/10/22 11:08:13;;;;;;;;;;;;;;;;;;5031395;28;19925;-79
2022/10/22 11:10:42;;;;;;;;;;;;;;;;;;5024277;28;19927;-79
2022/10/22 11:13:12;;;;;;;;;;;;;;;;;;5020333;28;19991;-80
2022/10/22 11:15:40;;;;;;;;;;;;;;;;;;5021224;28;20007;-80
2022/10/22 11:18:14;;;;;;;;;;;;;;;;;;5021099;28;20024;-79
2022/10/22 11:21:11;;;;;;;;;;;;;;;;;;5023969;28;19964;-80
2022/10/22 11:23:41;;;;;;;;;;;;;;;;;;4964924;29;20421;-80
2022/10/22 11:26:13;;;;;;;;;;;;;;;;;;5000979;28;19925;-79
2022/10/22 11:28:41;;;;;;;;;;;;;;;;;;5019813;28;19979;-79
2022/10/22 11:31:13;;;;;;;;;;;;;;;;;;5028012;28;20012;-78
2022/10/22 11:33:42;;;;;;;;;;;;;;;;;;5027373;28;19931;-78
2022/10/22 11:36:10;;;;;;;;;;;;;;;;;;5019489;28;19933;-79
2022/10/22 11:38:37;;;;;;;;;;;;;;;;;;5025115;28;19929;-77
2022/10/22 11:41:05;;;;;;;;;;;;;;;;;;5025931;28;19983;-78
2022/10/22 11:43:34;;;;;;;;;;;;;;;;;;5027701;28;19980;-79
2022/10/22 11:46:02;;;;;;;;;;;;;;;;;;5024623;28;19934;-80
2022/10/22 11:48:35;;;;;;;;;;;;;;;;;;5022676;28;19933;-78
2022/10/22 11:51:02;;;;;;;;;;;;;;;;;;5032347;28;20000;-79
2022/10/22 11:53:31;;;;;;;;;;;;;;;;;;5024275;28;19961;-79
2022/10/22 11:55:58;;;;;;;;;;;;;;;;;;5030673;28;19960;-79
2022/10/22 11:58:32;;;;;;;;;;;;;;;;;;5031575;28;20002;-78
2022/10/22 12:01:18;;;;;;;;;;;;;;;;;;5024937;28;19965;-79
2022/10/22 12:03:49;;;;;;;;;;;;;;;;;;5035780;28;19929;-79
2022/10/22 12:06:20;;;;;;;;;;;;;;;;;;5034455;28;19997;-79
2022/10/22 12:08:50;;;;;;;;;;;;;;;;;;5030841;28;19949;-79
2022/10/22 12:11:21;;;;;;;;;;;;;;;;;;5031751;28;20412;-80
2022/10/22 12:13:53;;;;;;;;;;;;;;;;;;5031731;28;19959;-79
2022/10/22 12:16:22;;;;;;;;;;;;;;;;;;5026458;28;19992;-78
2022/10/22 12:18:55;;;;;;;;;;;;;;;;;;5025690;28;19925;-79
2022/10/22 12:21:22;;;;;;;;;;;;;;;;;;5017681;28;19948;-80
2022/10/22 12:23:48;;;;;;;;;;;;;;;;;;5018870;28;19929;-79
2022/10/22 12:26:25;;;;;;;;;;;;;;;;;;5018325;28;19932;-79
2022/10/22 12:28:51;;;;;;;;;;;;;;;;;;5017743;28;19984;-80
2022/10/22 12:31:18;;;;;;;;;;;;;;;;;;5018226;28;19972;-79
2022/10/22 12:33:44;;;;;;;;;;;;;;;;;;5021978;28;19926;-84
2022/10/22 12:36:17;;;;;;;;;;;;;;;;;;5022565;28;19980;-80
2022/10/22 12:38:46;;;;;;;;;;;;;;;;;;5019227;28;20012;-78
2022/10/22 12:41:12;;;;;;;;;;;;;;;;;;5017664;28;19925;-78
2022/10/22 12:43:39;;;;;;;;;;;;;;;;;;5018548;28;19995;-80
2022/10/22 12:46:12;;;;;;;;;;;;;;;;;;5017539;28;19925;-80
2022/10/22 12:48:40;;;;;;;;;;;;;;;;;;5016848;28;19932;-79
2022/10/22 12:51:08;;;;;;;;;;;;;;;;;;5017031;28;19964;-79
2022/10/22 12:53:38;;;;;;;;;;;;;;;;;;5016441;28;19925;-79
2022/10/22 12:56:05;;;;;;;;;;;;;;;;;;5017600;28;19925;-80
2022/10/22 12:58:34;;;;;;;;;;;;;;;;;;5016451;28;20024;-79
2022/10/22 13:01:00;;;;;;;;;;;;;;;;;;5016918;28;20020;-80
2022/10/22 13:03:29;;;;;;;;;;;;;;;;;;5016424;28;19980;-78
2022/10/22 13:05:55;;;;;;;;;;;;;;;;;;5016314;28;19988;-78
2022/10/22 13:08:23;;;;;;;;;;;;;;;;;;5016640;28;19925;-79
2022/10/22 13:10:51;;;;;;;;;;;;;;;;;;5017721;28;20032;-79
2022/10/22 13:13:30;;;;;;;;;;;;;;;;;;5019751;28;19993;-80
2022/10/22 13:16:12;;;;;;;;;;;;;;;;;;5020216;28;20011;-79
2022/10/22 13:18:38;;;;;;;;;;;;;;;;;;5020842;28;20020;-80
2022/10/22 13:21:05;;;;;;;;;;;;;;;;;;5018172;28;20308;-79
2022/10/22 13:23:32;;;;;;;;;;;;;;;;;;5017255;28;19933;-78
2022/10/22 13:26:02;;;;;;;;;;;;;;;;;;5016861;28;20374;-79
2022/10/22 13:28:30;;;;;;;;;;;;;;;;;;5015316;28;19957;-79
2022/10/22 13:30:58;;;;;;;;;;;;;;;;;;5015483;28;19925;-79
2022/10/22 13:33:26;;;;;;;;;;;;;;;;;;5015952;28;20016;-79
2022/10/22 13:35:53;;;;;;;;;;;;;;;;;;5015609;28;19925;-80
2022/10/22 13:38:21;;;;;;;;;;;;;;;;;;5014913;28;19932;-78
2022/10/22 13:40:48;;;;;;;;;;;;;;;;;;5013455;28;19925;-78
2022/10/22 13:43:16;;;;;;;;;;;;;;;;;;5015362;28;20393;-78
2022/10/22 13:45:43;;;;;;;;;;;;;;;;;;5015735;28;20532;-79
2022/10/22 13:48:12;;;;;;;;;;;;;;;;;;5015979;28;19968;-78
2022/10/22 13:50:39;;;;;;;;;;;;;;;;;;5015576;28;19925;-79
2022/10/22 13:53:07;;;;;;;;;;;;;;;;;;5017783;28;20400;-80
2022/10/22 13:55:33;;;;;;;;;;;;;;;;;;5018657;28;19929;-81
2022/10/22 13:58:01;;;;;;;;;;;;;;;;;;5022581;28;19930;-78
2022/10/22 14:00:29;;;;;;;;;;;;;;;;;;5026737;28;19936;-79
2022/10/22 14:02:57;;;;;;;;;;;;;;;;;;5025613;28;19972;-78
2022/10/22 14:05:24;;;;;;;;;;;;;;;;;;5017218;28;19929;-80
2022/10/22 14:07:51;;;;;;;;;;;;;;;;;;5018609;28;19968;-80
2022/10/22 14:10:18;;;;;;;;;;;;;;;;;;5016124;28;19973;-82
2022/10/22 14:12:45;;;;;;;;;;;;;;;;;;5020655;28;19983;-80
2022/10/22 14:15:12;;;;;;;;;;;;;;;;;;5020984;28;19936;-82
2022/10/22 14:17:41;;;;;;;;;;;;;;;;;;5020261;28;20016;-80
2022/10/22 14:20:10;;;;;;;;;;;;;;;;;;5021368;28;20105;-80
2022/10/22 14:22:37;;;;;;;;;;;;;;;;;;5019635;28;19929;-78
2022/10/22 14:25:03;;;;;;;;;;;;;;;;;;5020622;28;20024;-80
2022/10/22 14:27:30;;;;;;;;;;;;;;;;;;5020373;28;20020;-80
2022/10/22 14:29:56;;;;;;;;;;;;;;;;;;5026002;28;19925;-80
2022/10/22 14:32:23;;;;;;;;;;;;;;;;;;5026314;28;19926;-80
2022/10/22 14:34:50;;;;;;;;;;;;;;;;;;5025604;28;19973;-80
2022/10/22 14:37:18;;;;;;;;;;;;;;;;;;5026754;28;19980;-80
2022/10/22 14:39:50;;;;;;;;;;;;;;;;;;5026833;28;19959;-78
2022/10/22 14:42:17;;;;;;;;;;;;;;;;;;5026081;28;19925;-78
2022/10/22 14:44:43;;;;;;;;;;;;;;;;;;5022720;28;19990;-79
2022/10/22 14:47:10;;;;;;;;;;;;;;;;;;5020587;28;19976;-80
2022/10/22 14:49:36;;;;;;;;;;;;;;;;;;5018996;28;19961;-79
2022/10/22 14:52:04;;;;;;;;;;;;;;;;;;5018746;28;19969;-81
2022/10/22 14:54:32;;;;;;;;;;;;;;;;;;5019026;28;19932;-82
2022/10/22 14:56:58;;;;;;;;;;;;;;;;;;5018439;28;19932;-80
2022/10/22 14:59:24;;;;;;;;;;;;;;;;;;5018452;28;20395;-80
2022/10/22 15:01:51;;;;;;;;;;;;;;;;;;5019690;28;19972;-81
2022/10/22 15:04:17;;;;;;;;;;;;;;;;;;5019758;28;19989;-81
2022/10/22 15:06:44;;;;;;;;;;;;;;;;;;5020334;28;20341;-80
2022/10/22 15:09:11;;;;;;;;;;;;;;;;;;5019328;28;19926;-79
2022/10/22 15:11:38;;;;;;;;;;;;;;;;;;5018155;28;19972;-81
2022/10/22 15:14:04;;;;;;;;;;;;;;;;;;5018920;28;19957;-79
2022/10/22 15:16:31;;;;;;;;;;;;;;;;;;5018461;28;20004;-78
2022/10/22 15:18:58;;;;;;;;;;;;;;;;;;5019675;28;19976;-82
2022/10/22 15:21:25;;;;;;;;;;;;;;;;;;5019458;28;20024;-80
2022/10/22 15:23:51;;;;;;;;;;;;;;;;;;5017618;28;19976;-80
2022/10/22 15:26:19;;;;;;;;;;;;;;;;;;5018333;28;19999;-80
2022/10/22 15:28:45;;;;;;;;;;;;;;;;;;5018255;28;20017;-80
2022/10/22 15:31:13;;;;;;;;;;;;;;;;;;5017794;28;20016;-79
2022/10/22 15:33:40;;;;;;;;;;;;;;;;;;5018424;28;19932;-79
2022/10/22 15:36:11;;;;;;;;;;;;;;;;;;5018049;28;19925;-79
2022/10/22 15:38:37;;;;;;;;;;;;;;;;;;5017595;28;19958;-81
2022/10/22 15:41:04;;;;;;;;;;;;;;;;;;5023756;28;19969;-79
2022/10/22 15:43:32;;;;;;;;;;;;;;;;;;5022798;28;20016;-79
2022/10/22 15:46:08;;;;;;;;;;;;;;;;;;5019187;28;19932;-82
2022/10/22 15:48:35;;;;;;;;;;;;;;;;;;5017851;28;19957;-80
2022/10/22 15:51:07;;;;;;;;;;;;;;;;;;5018497;28;19976;-80
2022/10/22 15:53:33;;;;;;;;;;;;;;;;;;5018468;28;19925;-80
2022/10/22 15:56:00;;;;;;;;;;;;;;;;;;5018349;28;19932;-79
2022/10/22 15:58:26;;;;;;;;;;;;;;;;;;5017729;28;19993;-79
2022/10/22 16:00:54;;;;;;;;;;;;;;;;;;5018594;28;19988;-78
2022/10/22 16:03:20;;;;;;;;;;;;;;;;;;5028183;28;19925;-79
2022/10/22 16:05:50;;;;;;;;;;;;;;;;;;5038283;28;20399;-79
2022/10/22 16:08:16;;;;;;;;;;;;;;;;;;5037705;28;19980;-80
2022/10/22 16:10:44;;;;;;;;;;;;;;;;;;5043081;28;20445;-79
2022/10/22 16:13:11;;;;;;;;;;;;;;;;;;5045232;28;19925;-79
2022/10/22 16:15:37;;;;;;;;;;;;;;;;;;5045097;28;19968;-79
2022/10/22 16:18:05;;;;;;;;;;;;;;;;;;5039411;28;20020;-80
2022/10/22 16:20:32;;;;;;;;;;;;;;;;;;5037297;28;19925;-80
2022/10/22 16:22:58;;;;;;;;;;;;;;;;;;5041904;28;19948;-78
2022/10/22 16:25:24;;;;;;;;;;;;;;;;;;5040075;28;20007;-79
2022/10/22 16:27:51;;;;;;;;;;;;;;;;;;5037585;28;19980;-77
2022/10/22 16:30:18;;;;;;;;;;;;;;;;;;5036698;28;20032;-79
2022/10/22 16:32:44;;;;;;;;;;;;;;;;;;5037097;28;19925;-79
2022/10/22 16:35:12;;;;;;;;;;;;;;;;;;5035675;28;19926;-79
2022/10/22 16:37:38;;;;;;;;;;;;;;;;;;5035820;28;19929;-80
2022/10/22 16:40:06;;;;;;;;;;;;;;;;;;5036874;28;19925;-79
2022/10/22 16:42:32;;;;;;;;;;;;;;;;;;5036802;28;19973;-80
2022/10/22 16:44:59;;;;;;;;;;;;;;;;;;5036772;28;20016;-79
2022/10/22 16:47:25;;;;;;;;;;;;;;;;;;5036745;28;20015;-79
2022/10/22 16:49:52;;;;;;;;;;;;;;;;;;5037128;28;19971;-79
2022/10/22 16:52:19;;;;;;;;;;;;;;;;;;5043525;28;19948;-79